createdAt,value
2022-11-28T00:00:28.581Z,10.23
2022-11-28T00:03:12.406Z,9.05
2022-11-28T00:05:47.126Z,11.93
2022-11-28T00:24:54.421Z,8.35
2022-11-28T00:27:45.563Z,7.35
2022-11-28T00:30:44.043Z,10.50
2022-11-28T00:33:35.290Z,7.90
2022-11-28T00:36:15.027Z,11.82
2022-11-28T00:39:01.682Z,7.80
2022-11-28T00:41:51.845Z,9.25
2022-11-28T00:44:34.498Z,8.43
2022-11-28T00:47:03.884Z,7.35
2022-11-28T00:49:39.054Z,9.27
2022-11-28T00:52:07.436Z,8.90
2022-11-28T01:00:31.615Z,7.85
2022-11-28T01:02:59.767Z,8.95
2022-11-28T01:05:27.350Z,8.32
2022-11-28T01:08:02.643Z,7.00
2022-11-28T01:10:31.806Z,11.48
2022-11-28T01:13:15.324Z,7.95
2022-11-28T01:15:51.264Z,8.50
2022-11-28T01:18:21.722Z,10.77
2022-11-28T01:20:52.339Z,5.15
2022-11-28T01:23:26.410Z,7.85
2022-11-28T01:25:57.498Z,11.05
2022-11-28T01:28:35.696Z,7.25
2022-11-28T01:31:07.991Z,9.18
2022-11-28T01:33:37.777Z,9.55
2022-11-28T01:36:05.920Z,10.02
2022-11-28T01:38:35.637Z,5.65
2022-11-28T01:41:03.674Z,9.57
2022-11-28T01:43:31.291Z,9.48
2022-11-28T01:46:02.344Z,7.03
2022-11-28T01:48:37.865Z,9.77
2022-11-28T01:51:09.095Z,7.22
2022-11-28T01:53:41.277Z,7.22
2022-11-28T01:56:34.408Z,7.45
2022-11-28T01:59:06.354Z,8.68
2022-11-28T02:01:33.748Z,7.70
2022-11-28T02:04:01.936Z,8.13
2022-11-28T02:06:35.338Z,9.15
2022-11-28T02:09:05.210Z,9.20
2022-11-28T02:12:09.085Z,5.43
2022-11-28T02:15:02.302Z,8.02
2022-11-28T02:17:49.087Z,9.50
2022-11-28T02:20:33.483Z,7.72
2022-11-28T02:23:22.386Z,7.25
2022-11-28T02:26:04.926Z,9.60
2022-11-28T02:31:29.677Z,7.43
2022-11-28T02:34:02.654Z,6.72
2022-11-28T02:36:50.187Z,7.43
2022-11-28T02:39:24.570Z,10.48
2022-11-28T02:41:57.088Z,8.77
2022-11-28T02:44:44.174Z,6.47
2022-11-28T02:47:39.693Z,8.57
2022-11-28T02:50:20.614Z,7.60
2022-11-28T02:53:03.712Z,7.05
2022-11-28T02:55:31.779Z,8.40
2022-11-28T02:57:59.548Z,7.95
2022-11-28T03:00:36.937Z,9.68
2022-11-28T03:03:13.375Z,6.70
2022-11-28T03:05:55.508Z,6.00
2022-11-28T03:08:28.528Z,8.75
2022-11-28T03:11:20.092Z,4.85
2022-11-28T03:14:12.225Z,11.02
2022-11-28T03:16:52.330Z,9.15
2022-11-28T03:19:30.792Z,6.40
2022-11-28T03:22:04.677Z,7.10
2022-11-28T03:24:41.854Z,5.85
2022-11-28T03:27:19.144Z,8.60
2022-11-28T03:30:01.480Z,6.78
2022-11-28T03:32:32.203Z,7.45
2022-11-28T03:35:18.321Z,7.70
2022-11-28T03:37:53.333Z,8.85
2022-11-28T03:40:29.419Z,8.25
2022-11-28T03:43:09.146Z,7.07
2022-11-28T03:45:45.455Z,7.47
2022-11-28T03:48:37.050Z,7.43
2022-11-28T03:51:22.200Z,7.30
2022-11-28T03:54:03.779Z,6.38
2022-11-28T03:56:55.181Z,7.68
2022-11-28T03:59:32.467Z,7.53
2022-11-28T04:02:34.878Z,9.57
2022-11-28T04:05:04.192Z,9.27
2022-11-28T04:07:59.510Z,11.40
2022-11-28T04:10:37.020Z,7.78
2022-11-28T04:13:10.496Z,7.95
2022-11-28T04:18:23.221Z,5.28
2022-11-28T04:21:17.211Z,7.78
2022-11-28T04:23:47.120Z,6.20
2022-11-28T04:26:20.515Z,6.07
2022-11-28T04:28:49.836Z,8.00
2022-11-28T04:31:19.005Z,10.15
2022-11-28T04:33:50.269Z,9.25
2022-11-28T04:36:20.362Z,9.07
2022-11-28T04:41:35.192Z,6.20
2022-11-28T04:44:26.091Z,6.55
2022-11-28T04:46:55.625Z,5.65
2022-11-28T04:49:26.136Z,7.93
2022-11-28T04:52:02.296Z,7.97
2022-11-28T04:54:32.692Z,5.53
2022-11-28T04:57:40.210Z,10.30
2022-11-28T05:00:14.450Z,8.75
2022-11-28T05:02:44.261Z,11.07
2022-11-28T05:05:16.901Z,9.23
2022-11-28T05:07:43.951Z,7.80
2022-11-28T05:10:13.588Z,8.00
2022-11-28T05:12:40.735Z,9.43
2022-11-28T05:15:08.971Z,7.10
2022-11-28T05:17:41.912Z,7.63
2022-11-28T05:20:10.200Z,9.15
2022-11-28T05:22:39.980Z,8.60
2022-11-28T05:25:07.441Z,7.78
2022-11-28T05:27:34.836Z,9.02
2022-11-28T05:30:02.067Z,8.57
2022-11-28T05:32:32.739Z,7.63
2022-11-28T05:35:00.075Z,10.07
2022-11-28T05:37:27.861Z,11.23
2022-11-28T05:39:54.968Z,8.10
2022-11-28T05:42:22.451Z,9.95
2022-11-28T05:44:50.428Z,7.30
2022-11-28T05:47:17.824Z,11.90
2022-11-28T05:49:47.317Z,9.77
2022-11-28T05:52:14.559Z,10.38
2022-11-28T05:54:41.806Z,12.25
2022-11-28T05:57:09.521Z,10.75
2022-11-28T05:59:36.832Z,10.05
2022-11-28T06:02:04.233Z,11.07
2022-11-28T06:04:31.729Z,9.98
2022-11-28T06:07:22.956Z,9.85
2022-11-28T06:09:57.167Z,11.38
2022-11-28T06:12:26.178Z,11.10
2022-11-28T06:14:56.090Z,13.02
2022-11-28T06:17:26.718Z,7.85
2022-11-28T06:19:54.013Z,12.88
2022-11-28T06:22:21.676Z,6.53
2022-11-28T06:24:49.460Z,11.27
2022-11-28T06:27:19.444Z,13.07
2022-11-28T06:29:48.628Z,9.05
2022-11-28T06:32:22.395Z,11.68
2022-11-28T06:34:49.517Z,12.20
2022-11-28T06:37:17.972Z,9.48
2022-11-28T06:39:45.404Z,9.43
2022-11-28T06:42:15.188Z,9.43
2022-11-28T06:44:42.442Z,11.85
2022-11-28T06:47:10.157Z,8.50
2022-11-28T06:49:37.980Z,11.00
2022-11-28T06:52:05.424Z,11.60
2022-11-28T06:54:32.588Z,10.00
2022-11-28T06:57:02.390Z,11.27
2022-11-28T06:59:29.636Z,12.45
2022-11-28T07:02:05.822Z,11.80
2022-11-28T07:04:35.322Z,10.25
2022-11-28T07:07:02.447Z,8.98
2022-11-28T07:09:29.785Z,10.23
2022-11-28T07:11:57.058Z,14.60
2022-11-28T07:14:24.199Z,10.20
2022-11-28T07:16:52.177Z,8.13
2022-11-28T07:19:23.126Z,9.13
2022-11-28T07:21:50.853Z,10.57
2022-11-28T07:24:20.325Z,11.05
2022-11-28T07:26:47.420Z,11.68
2022-11-28T07:29:16.362Z,11.35
2022-11-28T07:31:43.599Z,11.20
2022-11-28T07:34:11.930Z,13.48
2022-11-28T07:36:39.055Z,13.40
2022-11-28T07:39:08.549Z,13.55
2022-11-28T07:41:36.348Z,10.57
2022-11-28T07:44:04.296Z,12.80
2022-11-28T07:46:33.161Z,13.50
2022-11-28T07:49:00.650Z,14.57
2022-11-28T07:51:30.246Z,8.35
2022-11-28T07:53:57.500Z,13.70
2022-11-28T07:56:57.274Z,14.63
2022-11-28T07:59:20.242Z,14.20
2022-11-28T08:01:48.774Z,10.52
2022-11-28T08:04:16.168Z,14.45
2022-11-28T08:06:48.657Z,14.27
2022-11-28T08:09:20.503Z,9.52
2022-11-28T08:11:49.794Z,13.05
2022-11-28T08:14:17.943Z,14.00
2022-11-28T08:16:45.617Z,11.48
2022-11-28T08:19:13.741Z,12.10
2022-11-28T08:21:44.037Z,13.70
2022-11-28T08:24:14.218Z,16.65
2022-11-28T08:29:09.993Z,12.77
2022-11-28T08:31:41.188Z,15.77
2022-11-28T08:34:10.774Z,13.23
2022-11-28T08:36:38.310Z,10.10
2022-11-28T08:41:57.198Z,12.05
2022-11-28T08:44:25.058Z,14.25
2022-11-28T08:46:53.128Z,13.30
2022-11-28T08:49:24.144Z,13.18
2022-11-28T08:51:51.317Z,12.93
2022-11-28T08:54:21.067Z,14.60
2022-11-28T08:56:49.024Z,13.75
2022-11-28T08:59:16.369Z,10.80
2022-11-28T09:01:43.880Z,12.70
2022-11-28T09:04:14.920Z,12.90
2022-11-28T09:07:15.530Z,13.07
2022-11-28T09:09:49.199Z,12.05
2022-11-28T09:12:18.761Z,15.13
2022-11-28T09:14:45.943Z,15.35
2022-11-28T09:17:13.316Z,11.07
2022-11-28T09:19:41.092Z,15.13
2022-11-28T09:22:11.473Z,13.07
2022-11-28T09:24:41.896Z,14.75
2022-11-28T09:27:11.654Z,10.30
2022-11-28T09:29:42.271Z,14.25
2022-11-28T09:32:09.500Z,14.88
2022-11-28T09:34:36.890Z,11.23
2022-11-28T09:37:06.703Z,11.07
2022-11-28T09:39:50.269Z,12.20
2022-11-28T09:42:43.613Z,11.77
2022-11-28T09:45:22.365Z,13.65
2022-11-28T09:48:01.518Z,9.07
2022-11-28T09:50:34.246Z,10.70
2022-11-28T09:53:23.546Z,10.68
2022-11-28T09:55:56.202Z,12.02
2022-11-28T09:58:42.424Z,13.45
2022-11-28T10:01:24.456Z,9.30
2022-11-28T10:04:04.013Z,12.50
2022-11-28T10:06:46.974Z,10.60
2022-11-28T10:09:44.876Z,10.52
2022-11-28T10:12:31.947Z,14.50
2022-11-28T10:15:23.859Z,10.85
2022-11-28T10:18:21.155Z,12.48
2022-11-28T10:21:00.012Z,10.18
2022-11-28T10:23:33.728Z,13.60
2022-11-28T10:26:37.447Z,12.98
2022-11-28T10:29:57.949Z,13.93
2022-11-28T10:32:35.679Z,11.32
2022-11-28T10:35:07.534Z,11.98
2022-11-28T10:37:39.697Z,9.45
2022-11-28T10:40:23.310Z,11.27
2022-11-28T10:43:09.151Z,12.18
2022-11-28T10:45:48.816Z,10.55
2022-11-28T10:48:39.944Z,13.20
2022-11-28T10:51:21.465Z,8.45
2022-11-28T10:54:24.632Z,7.72
2022-11-28T10:57:31.283Z,10.40
2022-11-28T11:00:18.868Z,9.68
2022-11-28T11:02:47.796Z,14.98
2022-11-28T11:05:19.288Z,10.85
2022-11-28T11:07:54.682Z,9.88
2022-11-28T11:10:42.585Z,11.20
2022-11-28T11:13:27.655Z,8.18
2022-11-28T11:16:09.884Z,11.38
2022-11-28T11:18:51.545Z,12.15
2022-11-28T11:21:25.273Z,14.63
2022-11-28T11:24:11.799Z,10.50
2022-11-28T11:26:43.675Z,10.85
2022-11-28T11:29:33.715Z,14.07
2022-11-28T11:32:06.042Z,11.38
2022-11-28T11:34:44.362Z,10.93
2022-11-28T11:37:36.836Z,12.38
2022-11-28T11:40:27.557Z,9.73
2022-11-28T11:42:57.778Z,14.23
2022-11-28T11:45:34.761Z,9.40
2022-11-28T11:48:03.614Z,10.82
2022-11-28T11:50:32.890Z,10.35
2022-11-28T11:53:13.894Z,11.85
2022-11-28T11:55:51.359Z,10.73
2022-11-28T11:58:31.800Z,11.82
2022-11-28T12:01:00.673Z,10.85
2022-11-28T12:03:46.915Z,12.98
2022-11-28T12:06:26.999Z,9.18
2022-11-28T12:09:15.893Z,10.50
2022-11-28T12:12:00.984Z,12.90
2022-11-28T12:14:32.034Z,11.38
2022-11-28T12:17:32.717Z,10.73
2022-11-28T12:19:59.750Z,10.82
2022-11-28T12:22:52.452Z,11.50
2022-11-28T12:25:46.254Z,11.32
2022-11-28T12:28:38.268Z,11.50
2022-11-28T12:31:22.795Z,10.35
2022-11-28T12:34:24.159Z,11.32
2022-11-28T12:37:05.148Z,9.30
2022-11-28T12:39:59.099Z,12.75
2022-11-28T12:42:31.312Z,11.57
2022-11-28T12:45:13.373Z,10.38
2022-11-28T12:47:53.344Z,9.13
2022-11-28T12:50:42.129Z,13.75
2022-11-28T12:56:01.614Z,10.18
2022-11-28T12:58:37.118Z,7.55
2022-11-28T13:01:41.628Z,8.52
2022-11-28T13:04:51.825Z,9.50
2022-11-28T13:07:46.000Z,10.00
2022-11-28T13:10:42.696Z,13.70
2022-11-28T13:13:18.021Z,12.70
2022-11-28T13:16:32.984Z,10.55
2022-11-28T13:19:22.095Z,11.73
2022-11-28T13:21:49.850Z,10.73
2022-11-28T13:24:32.069Z,11.93
2022-11-28T13:27:27.727Z,10.88
2022-11-28T13:30:14.109Z,10.77
2022-11-28T13:33:01.251Z,16.13
2022-11-28T13:35:32.768Z,8.60
2022-11-28T13:38:40.449Z,11.10
2022-11-28T13:42:05.908Z,8.85
2022-11-28T13:44:25.328Z,12.82
2022-11-28T13:46:56.760Z,13.80
2022-11-28T13:49:26.809Z,10.02
2022-11-28T13:52:19.057Z,10.63
2022-11-28T13:54:56.887Z,9.05
2022-11-28T13:57:40.524Z,7.88
2022-11-28T14:00:23.841Z,9.98
2022-11-28T14:03:00.049Z,16.30
2022-11-28T14:05:44.261Z,12.43
2022-11-28T14:08:31.544Z,11.88
2022-11-28T14:11:39.018Z,14.30
2022-11-28T14:14:14.751Z,9.73
2022-11-28T14:17:07.379Z,10.68
2022-11-28T14:19:51.582Z,10.30
2022-11-28T14:23:08.325Z,14.60
2022-11-28T14:25:46.022Z,11.85
2022-11-28T14:28:40.229Z,13.68
2022-11-28T14:31:13.589Z,12.15
2022-11-28T14:33:43.614Z,11.63
2022-11-28T14:36:28.446Z,13.52
2022-11-28T14:39:15.866Z,11.38
2022-11-28T14:42:09.214Z,10.82
2022-11-28T14:44:57.171Z,12.48
2022-11-28T14:47:28.789Z,15.18
2022-11-28T14:50:05.319Z,11.80
2022-11-28T14:52:39.847Z,12.82
2022-11-28T14:55:13.468Z,12.40
2022-11-28T14:57:55.390Z,12.60
2022-11-28T15:00:44.051Z,11.13
2022-11-28T15:03:37.597Z,12.75
2022-11-28T15:06:20.482Z,12.13
2022-11-28T15:09:30.003Z,13.30
2022-11-28T15:12:32.563Z,10.60
2022-11-28T15:15:02.566Z,10.55
2022-11-28T15:17:34.037Z,13.85
2022-11-28T15:20:20.673Z,14.10
2022-11-28T15:22:49.293Z,15.93
2022-11-28T15:25:35.677Z,13.13
2022-11-28T15:28:22.426Z,11.45
2022-11-28T15:30:52.828Z,13.07
2022-11-28T15:33:21.441Z,16.25
2022-11-28T15:36:22.962Z,12.98
2022-11-28T15:38:50.701Z,14.63
2022-11-28T15:41:27.414Z,12.80
2022-11-28T15:43:56.445Z,12.93
2022-11-28T15:46:32.835Z,13.68
2022-11-28T15:49:02.745Z,12.85
2022-11-28T15:51:35.697Z,13.40
2022-11-28T15:54:04.945Z,14.00
2022-11-28T15:56:34.738Z,17.48
2022-11-28T15:59:02.616Z,14.82
2022-11-28T16:01:31.671Z,15.95
2022-11-28T16:04:13.293Z,13.85
2022-11-28T16:06:47.950Z,17.63
2022-11-28T16:09:19.313Z,15.30
2022-11-28T16:11:53.841Z,13.23
2022-11-28T16:14:38.802Z,21.67
2022-11-28T16:17:15.665Z,14.70
2022-11-28T16:19:47.007Z,16.52
2022-11-28T16:22:31.561Z,16.95
2022-11-28T16:25:31.083Z,19.10
2022-11-28T16:27:58.856Z,15.82
2022-11-28T16:30:32.690Z,15.88
2022-11-28T16:33:00.991Z,18.55
2022-11-28T16:35:33.198Z,16.48
2022-11-28T16:38:20.942Z,18.15
2022-11-28T16:40:48.172Z,20.10
2022-11-28T16:43:29.602Z,16.88
2022-11-28T16:46:02.247Z,17.40
2022-11-28T16:48:32.432Z,17.80
2022-11-28T16:51:22.653Z,17.67
2022-11-28T16:53:51.641Z,20.70
2022-11-28T16:56:31.074Z,20.42
2022-11-28T16:59:20.486Z,16.55
2022-11-28T17:01:53.224Z,15.50
2022-11-28T17:04:24.937Z,19.33
2022-11-28T17:06:54.314Z,22.02
2022-11-28T17:09:26.318Z,21.15
2022-11-28T17:12:10.455Z,20.23
2022-11-28T17:14:51.794Z,24.95
2022-11-28T17:17:26.087Z,25.67
2022-11-28T17:19:56.573Z,22.42
2022-11-28T17:22:40.987Z,22.52
2022-11-28T17:25:25.064Z,21.13
2022-11-28T17:27:58.960Z,22.50
2022-11-28T17:30:26.984Z,20.50
2022-11-28T17:32:54.951Z,21.55
2022-11-28T17:35:26.098Z,24.52
2022-11-28T17:37:56.870Z,23.35
2022-11-28T17:40:33.362Z,26.85
2022-11-28T17:43:07.323Z,21.85
2022-11-28T17:45:41.066Z,27.30
2022-11-28T17:48:09.458Z,24.90
2022-11-28T17:50:37.358Z,21.48
2022-11-28T17:53:05.024Z,22.10
2022-11-28T17:55:34.459Z,26.63
2022-11-28T17:58:04.447Z,24.75
2022-11-28T18:00:34.780Z,26.75
2022-11-28T18:03:02.371Z,29.02
2022-11-28T18:05:29.883Z,23.67
2022-11-28T18:08:23.038Z,25.13
2022-11-28T18:11:11.846Z,25.25
2022-11-28T18:13:42.875Z,26.10
2022-11-28T18:16:24.928Z,24.42
2022-11-28T18:18:57.079Z,23.95
2022-11-28T18:21:28.859Z,25.25
2022-11-28T18:23:56.939Z,24.33
2022-11-28T18:26:26.287Z,27.98
2022-11-28T18:28:57.170Z,25.73
2022-11-28T18:31:27.084Z,28.10
2022-11-28T18:34:02.099Z,22.83
2022-11-28T18:36:35.647Z,25.30
2022-11-28T18:39:06.712Z,27.58
2022-11-28T18:41:37.001Z,23.77
2022-11-28T18:46:38.698Z,19.35
2022-11-28T18:49:06.521Z,22.33
2022-11-28T18:51:37.596Z,32.05
2022-11-28T18:54:05.935Z,25.65
2022-11-28T18:56:35.138Z,24.70
2022-11-28T18:59:02.793Z,28.75
2022-11-28T19:01:32.485Z,30.77
2022-11-28T19:04:07.234Z,25.35
2022-11-28T19:06:36.227Z,33.63
2022-11-28T19:09:05.867Z,28.02
2022-11-28T19:11:34.006Z,31.77
2022-11-28T19:14:02.068Z,24.30
2022-11-28T19:16:33.460Z,30.55
2022-11-28T19:19:03.939Z,28.92
2022-11-28T19:21:38.282Z,28.48
2022-11-28T19:24:08.091Z,29.83
2022-11-28T19:26:38.066Z,33.13
2022-11-28T19:31:40.719Z,31.02
2022-11-28T19:34:12.651Z,26.15
2022-11-28T19:36:53.669Z,20.65
2022-11-28T19:39:27.592Z,30.73
2022-11-28T19:41:55.760Z,32.03
2022-11-28T19:44:31.792Z,24.80
2022-11-28T19:47:01.328Z,27.60
2022-11-28T19:49:29.384Z,34.67
2022-11-28T19:52:05.621Z,32.05
2022-11-28T19:54:38.044Z,30.02
2022-11-28T19:57:12.802Z,32.35
2022-11-28T19:59:45.160Z,25.73
2022-11-28T20:02:13.682Z,31.20
2022-11-28T20:04:43.391Z,32.40
2022-11-28T20:07:26.713Z,25.70
2022-11-28T20:10:11.537Z,33.30
2022-11-28T20:12:56.721Z,30.48
2022-11-28T20:15:56.649Z,28.00
2022-11-28T20:18:57.635Z,37.03
2022-11-28T20:22:09.682Z,40.15
2022-11-28T20:24:37.820Z,26.38
2022-11-28T20:27:08.775Z,29.67
2022-11-28T20:29:47.107Z,28.25
2022-11-28T20:32:22.501Z,30.17
2022-11-28T20:34:57.179Z,28.58
2022-11-28T20:37:47.671Z,30.70
2022-11-28T20:40:38.803Z,31.17
2022-11-28T20:43:27.699Z,30.23
2022-11-28T20:49:10.590Z,21.95
2022-11-28T20:51:38.013Z,31.58
2022-11-28T20:54:08.654Z,33.10
2022-11-28T20:57:05.124Z,36.22
2022-11-28T20:59:31.825Z,25.30
2022-11-28T21:02:00.761Z,31.77
2022-11-28T21:04:28.043Z,30.38
2022-11-28T21:06:57.894Z,25.65
2022-11-28T21:09:25.414Z,27.92
2022-11-28T21:11:58.945Z,28.20
2022-11-28T21:14:31.341Z,28.15
2022-11-28T21:17:02.469Z,33.80
2022-11-28T21:19:34.447Z,35.70
2022-11-28T21:22:11.871Z,31.13
2022-11-28T21:24:39.784Z,32.53
2022-11-28T21:27:07.760Z,34.85
2022-11-28T21:29:40.801Z,29.95
2022-11-28T21:32:08.297Z,32.30
2022-11-28T21:34:35.873Z,29.33
2022-11-28T21:37:06.065Z,32.45
2022-11-28T21:39:33.882Z,35.05
2022-11-28T21:42:04.465Z,31.33
2022-11-28T21:44:32.379Z,26.48
2022-11-28T21:47:00.156Z,30.90
2022-11-28T21:49:29.543Z,33.30
2022-11-28T21:51:57.824Z,37.97
2022-11-28T21:54:27.644Z,34.22
2022-11-28T21:56:55.013Z,36.67
2022-11-28T21:59:22.647Z,34.08
2022-11-28T22:01:50.331Z,33.13
2022-11-28T22:04:21.896Z,31.65
2022-11-28T22:06:54.358Z,29.77
2022-11-28T22:09:26.525Z,22.10
2022-11-28T22:11:56.183Z,32.50
2022-11-28T22:14:26.329Z,37.10
2022-11-28T22:19:27.949Z,24.33
2022-11-28T22:21:58.846Z,29.17
2022-11-28T22:25:40.021Z,33.60
2022-11-28T22:28:10.450Z,35.47
2022-11-28T22:30:40.881Z,39.55
2022-11-28T22:33:11.269Z,34.17
2022-11-28T22:35:38.438Z,37.25
2022-11-28T22:38:09.002Z,33.55
2022-11-28T22:40:37.344Z,38.58
2022-11-28T22:43:07.381Z,31.55
2022-11-28T22:45:35.170Z,32.45
2022-11-28T22:48:02.661Z,40.25
2022-11-28T22:50:29.957Z,27.42
2022-11-28T22:52:58.006Z,44.75
2022-11-28T22:55:28.429Z,39.35
2022-11-28T22:57:56.845Z,35.78
2022-11-28T23:00:24.065Z,31.50
2022-11-28T23:02:51.880Z,38.28
2022-11-28T23:05:25.174Z,38.50
2022-11-28T23:07:55.254Z,31.33
2022-11-28T23:10:24.062Z,33.70
2022-11-28T23:12:51.818Z,40.67
2022-11-28T23:15:19.185Z,37.72
2022-11-28T23:17:48.711Z,38.38
2022-11-28T23:20:17.359Z,36.10
2022-11-28T23:22:44.398Z,36.70
2022-11-28T23:25:15.722Z,29.52
2022-11-28T23:27:43.418Z,37.33
2022-11-28T23:30:10.896Z,38.75
2022-11-28T23:32:38.192Z,35.60
2022-11-28T23:35:07.826Z,30.60
2022-11-28T23:37:38.560Z,34.97
2022-11-28T23:42:34.827Z,23.20
2022-11-28T23:45:02.119Z,38.35
2022-11-28T23:47:29.601Z,39.88
2022-11-28T23:51:07.629Z,29.50
